sensor_id;sensor_type;location;lat;lon;timestamp;P1;durP1;ratioP1;P2;durP2;ratioP2
5379;SDS011;2713;42.680;23.310;2023-04-25T00:02:08;4.10;;;3.67;;
5379;SDS011;2713;42.680;23.310;2023-04-25T00:04:35;3.63;;;3.33;;
5379;SDS011;2713;42.680;23.310;2023-04-25T00:07:03;3.90;;;3.60;;
5379;SDS011;2713;42.680;23.310;2023-04-25T00:09:30;3.80;;;3.50;;
5379;SDS011;2713;42.680;23.310;2023-04-25T00:11:56;3.97;;;3.60;;
5379;SDS011;2713;42.680;23.310;2023-04-25T00:14:23;4.33;;;3.70;;
5379;SDS011;2713;42.680;23.310;2023-04-25T00:16:51;3.67;;;3.37;;
5379;SDS011;2713;42.680;23.310;2023-04-25T00:19:19;4.00;;;3.80;;
5379;SDS011;2713;42.680;23.310;2023-04-25T00:21:46;4.37;;;3.97;;
5379;SDS011;2713;42.680;23.310;2023-04-25T00:24:12;3.90;;;3.40;;
5379;SDS011;2713;42.680;23.310;2023-04-25T00:26:39;3.67;;;3.37;;
5379;SDS011;2713;42.680;23.310;2023-04-25T00:29:06;4.20;;;3.90;;
5379;SDS011;2713;42.680;23.310;2023-04-25T00:31:33;3.87;;;3.57;;
5379;SDS011;2713;42.680;23.310;2023-04-25T00:34:01;5.53;;;3.80;;
5379;SDS011;2713;42.680;23.310;2023-04-25T00:36:28;4.40;;;4.00;;
5379;SDS011;2713;42.680;23.310;2023-04-25T00:38:55;5.47;;;4.97;;
5379;SDS011;2713;42.680;23.310;2023-04-25T00:41:22;4.90;;;4.50;;
5379;SDS011;2713;42.680;23.310;2023-04-25T00:43:48;4.60;;;4.20;;
5379;SDS011;2713;42.680;23.310;2023-04-25T00:46:17;5.10;;;4.70;;
5379;SDS011;2713;42.680;23.310;2023-04-25T00:48:44;5.13;;;4.70;;
5379;SDS011;2713;42.680;23.310;2023-04-25T00:51:13;4.73;;;4.33;;
5379;SDS011;2713;42.680;23.310;2023-04-25T00:53:42;4.70;;;4.30;;
5379;SDS011;2713;42.680;23.310;2023-04-25T00:56:09;5.03;;;4.63;;
5379;SDS011;2713;42.680;23.310;2023-04-25T00:58:36;4.60;;;4.00;;
5379;SDS011;2713;42.680;23.310;2023-04-25T01:01:04;5.20;;;4.70;;
5379;SDS011;2713;42.680;23.310;2023-04-25T01:03:33;6.07;;;4.97;;
5379;SDS011;2713;42.680;23.310;2023-04-25T01:06:06;5.40;;;4.90;;
5379;SDS011;2713;42.680;23.310;2023-04-25T01:08:35;5.53;;;4.97;;
5379;SDS011;2713;42.680;23.310;2023-04-25T01:11:03;5.90;;;5.40;;
5379;SDS011;2713;42.680;23.310;2023-04-25T01:13:31;4.97;;;4.47;;
5379;SDS011;2713;42.680;23.310;2023-04-25T01:15:58;7.13;;;4.70;;
5379;SDS011;2713;42.680;23.310;2023-04-25T01:18:26;5.27;;;4.77;;
5379;SDS011;2713;42.680;23.310;2023-04-25T01:20:53;4.53;;;4.20;;
5379;SDS011;2713;42.680;23.310;2023-04-25T01:23:22;5.23;;;4.73;;
5379;SDS011;2713;42.680;23.310;2023-04-25T01:25:50;5.30;;;4.70;;
5379;SDS011;2713;42.680;23.310;2023-04-25T01:28:17;5.00;;;4.60;;
5379;SDS011;2713;42.680;23.310;2023-04-25T01:30:44;5.70;;;5.20;;
5379;SDS011;2713;42.680;23.310;2023-04-25T01:33:12;5.47;;;4.97;;
5379;SDS011;2713;42.680;23.310;2023-04-25T01:35:40;5.07;;;4.67;;
5379;SDS011;2713;42.680;23.310;2023-04-25T01:38:08;5.10;;;4.70;;
5379;SDS011;2713;42.680;23.310;2023-04-25T01:40:36;5.10;;;4.60;;
5379;SDS011;2713;42.680;23.310;2023-04-25T01:43:05;4.43;;;4.03;;
5379;SDS011;2713;42.680;23.310;2023-04-25T01:45:33;5.07;;;4.67;;
5379;SDS011;2713;42.680;23.310;2023-04-25T01:48:02;4.63;;;4.23;;
5379;SDS011;2713;42.680;23.310;2023-04-25T01:50:29;5.37;;;4.30;;
5379;SDS011;2713;42.680;23.310;2023-04-25T01:52:56;4.80;;;4.33;;
5379;SDS011;2713;42.680;23.310;2023-04-25T01:55:23;4.70;;;4.40;;
5379;SDS011;2713;42.680;23.310;2023-04-25T01:58:00;4.90;;;4.50;;
5379;SDS011;2713;42.680;23.310;2023-04-25T02:00:54;6.33;;;4.00;;
5379;SDS011;2713;42.680;23.310;2023-04-25T02:03:23;4.80;;;4.40;;
5379;SDS011;2713;42.680;23.310;2023-04-25T02:05:51;4.13;;;3.77;;
5379;SDS011;2713;42.680;23.310;2023-04-25T02:08:18;4.77;;;4.37;;
5379;SDS011;2713;42.680;23.310;2023-04-25T02:10:45;5.73;;;5.00;;
5379;SDS011;2713;42.680;23.310;2023-04-25T02:13:16;4.30;;;3.97;;
5379;SDS011;2713;42.680;23.310;2023-04-25T02:15:54;4.03;;;3.73;;
5379;SDS011;2713;42.680;23.310;2023-04-25T02:18:20;4.17;;;3.87;;
5379;SDS011;2713;42.680;23.310;2023-04-25T02:20:47;4.13;;;3.83;;
5379;SDS011;2713;42.680;23.310;2023-04-25T02:23:14;5.27;;;4.83;;
5379;SDS011;2713;42.680;23.310;2023-04-25T02:25:41;5.83;;;3.90;;
5379;SDS011;2713;42.680;23.310;2023-04-25T02:28:08;4.53;;;4.13;;
5379;SDS011;2713;42.680;23.310;2023-04-25T02:30:37;4.83;;;4.23;;
5379;SDS011;2713;42.680;23.310;2023-04-25T02:33:04;4.37;;;3.97;;
5379;SDS011;2713;42.680;23.310;2023-04-25T02:35:31;4.93;;;4.40;;
5379;SDS011;2713;42.680;23.310;2023-04-25T02:37:58;4.00;;;3.70;;
5379;SDS011;2713;42.680;23.310;2023-04-25T02:40:24;4.40;;;4.00;;
5379;SDS011;2713;42.680;23.310;2023-04-25T02:42:53;8.83;;;4.53;;
5379;SDS011;2713;42.680;23.310;2023-04-25T02:45:20;5.00;;;4.60;;
5379;SDS011;2713;42.680;23.310;2023-04-25T02:47:48;4.50;;;4.10;;
5379;SDS011;2713;42.680;23.310;2023-04-25T02:50:18;4.67;;;3.90;;
5379;SDS011;2713;42.680;23.310;2023-04-25T02:52:45;4.87;;;4.37;;
5379;SDS011;2713;42.680;23.310;2023-04-25T02:55:20;5.00;;;4.50;;
5379;SDS011;2713;42.680;23.310;2023-04-25T02:57:47;5.10;;;4.60;;
5379;SDS011;2713;42.680;23.310;2023-04-25T03:00:24;4.83;;;4.33;;
5379;SDS011;2713;42.680;23.310;2023-04-25T03:02:52;6.17;;;4.03;;
5379;SDS011;2713;42.680;23.310;2023-04-25T03:05:20;5.13;;;4.73;;
5379;SDS011;2713;42.680;23.310;2023-04-25T03:07:47;5.30;;;4.80;;
5379;SDS011;2713;42.680;23.310;2023-04-25T03:10:15;4.73;;;4.17;;
5379;SDS011;2713;42.680;23.310;2023-04-25T03:12:42;5.23;;;4.73;;
5379;SDS011;2713;42.680;23.310;2023-04-25T03:15:09;6.30;;;4.87;;
5379;SDS011;2713;42.680;23.310;2023-04-25T03:17:36;5.37;;;4.73;;
5379;SDS011;2713;42.680;23.310;2023-04-25T03:20:05;6.33;;;5.17;;
5379;SDS011;2713;42.680;23.310;2023-04-25T03:22:33;4.70;;;4.30;;
5379;SDS011;2713;42.680;23.310;2023-04-25T03:25:00;5.37;;;4.70;;
5379;SDS011;2713;42.680;23.310;2023-04-25T03:27:28;5.13;;;4.63;;
5379;SDS011;2713;42.680;23.310;2023-04-25T03:29:54;9.10;;;5.40;;
5379;SDS011;2713;42.680;23.310;2023-04-25T03:32:21;5.20;;;4.70;;
5379;SDS011;2713;42.680;23.310;2023-04-25T03:34:48;5.67;;;5.13;;
5379;SDS011;2713;42.680;23.310;2023-04-25T03:37:16;6.00;;;5.40;;
5379;SDS011;2713;42.680;23.310;2023-04-25T03:39:43;6.20;;;5.60;;
5379;SDS011;2713;42.680;23.310;2023-04-25T03:42:10;5.97;;;5.37;;
5379;SDS011;2713;42.680;23.310;2023-04-25T03:44:37;8.07;;;5.20;;
5379;SDS011;2713;42.680;23.310;2023-04-25T03:47:04;5.83;;;5.30;;
5379;SDS011;2713;42.680;23.310;2023-04-25T03:49:32;5.20;;;4.77;;
5379;SDS011;2713;42.680;23.310;2023-04-25T03:52:02;6.37;;;4.83;;
5379;SDS011;2713;42.680;23.310;2023-04-25T03:54:36;6.77;;;5.40;;
5379;SDS011;2713;42.680;23.310;2023-04-25T03:57:09;5.80;;;5.27;;
5379;SDS011;2713;42.680;23.310;2023-04-25T03:59:38;5.90;;;5.00;;
5379;SDS011;2713;42.680;23.310;2023-04-25T04:02:07;5.23;;;4.60;;
5379;SDS011;2713;42.680;23.310;2023-04-25T04:04:35;5.40;;;4.90;;
5379;SDS011;2713;42.680;23.310;2023-04-25T04:07:02;5.70;;;4.70;;
5379;SDS011;2713;42.680;23.310;2023-04-25T04:09:33;5.37;;;4.87;;
5379;SDS011;2713;42.680;23.310;2023-04-25T04:12:05;5.43;;;4.93;;
5379;SDS011;2713;42.680;23.310;2023-04-25T04:14:33;5.73;;;5.23;;
5379;SDS011;2713;42.680;23.310;2023-04-25T04:17:00;6.93;;;5.40;;
5379;SDS011;2713;42.680;23.310;2023-04-25T04:19:28;6.13;;;5.63;;
5379;SDS011;2713;42.680;23.310;2023-04-25T04:22:03;8.00;;;6.20;;
5379;SDS011;2713;42.680;23.310;2023-04-25T04:24:30;6.77;;;5.40;;
5379;SDS011;2713;42.680;23.310;2023-04-25T04:27:01;5.70;;;5.20;;
5379;SDS011;2713;42.680;23.310;2023-04-25T04:29:34;6.90;;;6.20;;
5379;SDS011;2713;42.680;23.310;2023-04-25T04:32:22;7.20;;;6.50;;
5379;SDS011;2713;42.680;23.310;2023-04-25T04:34:51;6.30;;;5.70;;
5379;SDS011;2713;42.680;23.310;2023-04-25T04:37:21;7.27;;;6.40;;
5379;SDS011;2713;42.680;23.310;2023-04-25T04:39:49;6.90;;;6.20;;
5379;SDS011;2713;42.680;23.310;2023-04-25T04:42:46;6.40;;;5.80;;
5379;SDS011;2713;42.680;23.310;2023-04-25T04:45:34;6.70;;;6.00;;
5379;SDS011;2713;42.680;23.310;2023-04-25T04:48:20;7.13;;;6.43;;
5379;SDS011;2713;42.680;23.310;2023-04-25T04:50:56;10.47;;;7.13;;
5379;SDS011;2713;42.680;23.310;2023-04-25T04:53:46;7.70;;;6.30;;
5379;SDS011;2713;42.680;23.310;2023-04-25T04:56:22;7.70;;;6.40;;
5379;SDS011;2713;42.680;23.310;2023-04-25T04:59:09;8.77;;;5.90;;
5379;SDS011;2713;42.680;23.310;2023-04-25T05:02:02;7.17;;;6.47;;
5379;SDS011;2713;42.680;23.310;2023-04-25T05:04:52;8.33;;;6.83;;
5379;SDS011;2713;42.680;23.310;2023-04-25T05:07:26;9.77;;;6.87;;
5379;SDS011;2713;42.680;23.310;2023-04-25T05:10:05;8.27;;;7.10;;
5379;SDS011;2713;42.680;23.310;2023-04-25T05:12:32;7.83;;;6.77;;
5379;SDS011;2713;42.680;23.310;2023-04-25T05:15:19;8.37;;;7.37;;
5379;SDS011;2713;42.680;23.310;2023-04-25T05:18:16;12.67;;;8.10;;
5379;SDS011;2713;42.680;23.310;2023-04-25T05:20:59;8.30;;;7.50;;
5379;SDS011;2713;42.680;23.310;2023-04-25T05:23:46;10.93;;;8.03;;
5379;SDS011;2713;42.680;23.310;2023-04-25T05:26:22;8.73;;;7.30;;
5379;SDS011;2713;42.680;23.310;2023-04-25T05:29:07;8.10;;;7.30;;
5379;SDS011;2713;42.680;23.310;2023-04-25T05:31:53;9.60;;;8.20;;
5379;SDS011;2713;42.680;23.310;2023-04-25T05:34:21;11.50;;;9.13;;
5379;SDS011;2713;42.680;23.310;2023-04-25T05:37:00;12.50;;;10.30;;
5379;SDS011;2713;42.680;23.310;2023-04-25T05:39:28;14.93;;;10.67;;
5379;SDS011;2713;42.680;23.310;2023-04-25T05:42:25;12.70;;;10.83;;
5379;SDS011;2713;42.680;23.310;2023-04-25T05:45:28;9.50;;;7.97;;
5379;SDS011;2713;42.680;23.310;2023-04-25T05:48:17;10.73;;;7.33;;
5379;SDS011;2713;42.680;23.310;2023-04-25T05:51:09;11.47;;;8.37;;
5379;SDS011;2713;42.680;23.310;2023-04-25T05:53:47;10.43;;;8.40;;
5379;SDS011;2713;42.680;23.310;2023-04-25T05:56:14;10.27;;;8.97;;
5379;SDS011;2713;42.680;23.310;2023-04-25T05:58:41;13.77;;;8.60;;
5379;SDS011;2713;42.680;23.310;2023-04-25T06:01:11;12.20;;;8.60;;
5379;SDS011;2713;42.680;23.310;2023-04-25T06:03:39;10.43;;;9.20;;
5379;SDS011;2713;42.680;23.310;2023-04-25T06:06:10;11.10;;;8.93;;
5379;SDS011;2713;42.680;23.310;2023-04-25T06:08:41;16.00;;;10.00;;
5379;SDS011;2713;42.680;23.310;2023-04-25T06:11:10;10.77;;;9.10;;
5379;SDS011;2713;42.680;23.310;2023-04-25T06:13:38;10.90;;;8.87;;
5379;SDS011;2713;42.680;23.310;2023-04-25T06:16:10;11.50;;;9.23;;
5379;SDS011;2713;42.680;23.310;2023-04-25T06:18:41;9.73;;;8.73;;
5379;SDS011;2713;42.680;23.310;2023-04-25T06:21:08;13.60;;;9.10;;
5379;SDS011;2713;42.680;23.310;2023-04-25T06:23:39;10.60;;;8.73;;
5379;SDS011;2713;42.680;23.310;2023-04-25T06:26:09;8.73;;;7.60;;
5379;SDS011;2713;42.680;23.310;2023-04-25T06:28:38;9.97;;;8.10;;
5379;SDS011;2713;42.680;23.310;2023-04-25T06:31:05;10.00;;;7.20;;
5379;SDS011;2713;42.680;23.310;2023-04-25T06:33:32;7.23;;;6.60;;
5379;SDS011;2713;42.680;23.310;2023-04-25T06:35:59;7.37;;;6.60;;
5379;SDS011;2713;42.680;23.310;2023-04-25T06:38:33;9.47;;;6.30;;
5379;SDS011;2713;42.680;23.310;2023-04-25T06:41:02;6.93;;;6.20;;
5379;SDS011;2713;42.680;23.310;2023-04-25T06:43:33;7.93;;;6.17;;
5379;SDS011;2713;42.680;23.310;2023-04-25T06:46:03;8.03;;;6.27;;
5379;SDS011;2713;42.680;23.310;2023-04-25T06:48:40;6.50;;;5.73;;
5379;SDS011;2713;42.680;23.310;2023-04-25T06:51:07;7.47;;;6.20;;
5379;SDS011;2713;42.680;23.310;2023-04-25T06:53:35;6.70;;;6.10;;
5379;SDS011;2713;42.680;23.310;2023-04-25T06:56:07;8.90;;;5.87;;
5379;SDS011;2713;42.680;23.310;2023-04-25T06:58:54;6.77;;;6.00;;
5379;SDS011;2713;42.680;23.310;2023-04-25T07:01:26;8.47;;;6.47;;
5379;SDS011;2713;42.680;23.310;2023-04-25T07:03:54;9.40;;;6.93;;
5379;SDS011;2713;42.680;23.310;2023-04-25T07:06:21;7.03;;;6.27;;
5379;SDS011;2713;42.680;23.310;2023-04-25T07:08:48;7.50;;;5.90;;
5379;SDS011;2713;42.680;23.310;2023-04-25T07:11:16;7.30;;;6.50;;
5379;SDS011;2713;42.680;23.310;2023-04-25T07:13:43;6.80;;;6.10;;
5379;SDS011;2713;42.680;23.310;2023-04-25T07:16:10;11.43;;;6.80;;
5379;SDS011;2713;42.680;23.310;2023-04-25T07:18:37;8.80;;;7.30;;
5379;SDS011;2713;42.680;23.310;2023-04-25T07:21:04;6.70;;;5.93;;
5379;SDS011;2713;42.680;23.310;2023-04-25T07:23:33;7.40;;;6.53;;
5379;SDS011;2713;42.680;23.310;2023-04-25T07:26:05;9.60;;;6.87;;
5379;SDS011;2713;42.680;23.310;2023-04-25T07:28:34;7.80;;;7.00;;
5379;SDS011;2713;42.680;23.310;2023-04-25T07:31:01;8.20;;;6.60;;
5379;SDS011;2713;42.680;23.310;2023-04-25T07:33:30;8.57;;;7.20;;
5379;SDS011;2713;42.680;23.310;2023-04-25T07:35:57;7.20;;;6.50;;
5379;SDS011;2713;42.680;23.310;2023-04-25T07:38:24;7.80;;;6.93;;
5379;SDS011;2713;42.680;23.310;2023-04-25T07:40:52;10.97;;;8.00;;
5379;SDS011;2713;42.680;23.310;2023-04-25T07:43:21;14.27;;;7.20;;
5379;SDS011;2713;42.680;23.310;2023-04-25T07:45:58;13.23;;;9.47;;
5379;SDS011;2713;42.680;23.310;2023-04-25T07:48:29;9.00;;;7.03;;
5379;SDS011;2713;42.680;23.310;2023-04-25T07:50:56;8.73;;;6.53;;
5379;SDS011;2713;42.680;23.310;2023-04-25T07:53:23;11.07;;;7.17;;
5379;SDS011;2713;42.680;23.310;2023-04-25T07:55:55;8.90;;;7.13;;
5379;SDS011;2713;42.680;23.310;2023-04-25T07:58:22;10.10;;;7.43;;
5379;SDS011;2713;42.680;23.310;2023-04-25T08:00:53;7.93;;;7.17;;
5379;SDS011;2713;42.680;23.310;2023-04-25T08:03:37;8.73;;;7.27;;
5379;SDS011;2713;42.680;23.310;2023-04-25T08:06:09;8.87;;;7.50;;
5379;SDS011;2713;42.680;23.310;2023-04-25T08:08:46;8.63;;;7.43;;
5379;SDS011;2713;42.680;23.310;2023-04-25T08:11:16;10.60;;;7.47;;
5379;SDS011;2713;42.680;23.310;2023-04-25T08:13:43;8.60;;;7.00;;
5379;SDS011;2713;42.680;23.310;2023-04-25T08:16:11;6.50;;;5.90;;
5379;SDS011;2713;42.680;23.310;2023-04-25T08:18:39;6.50;;;5.90;;
5379;SDS011;2713;42.680;23.310;2023-04-25T08:21:06;6.90;;;6.00;;
5379;SDS011;2713;42.680;23.310;2023-04-25T08:23:36;6.10;;;5.50;;
5379;SDS011;2713;42.680;23.310;2023-04-25T08:26:09;7.33;;;6.30;;
5379;SDS011;2713;42.680;23.310;2023-04-25T08:28:37;8.00;;;6.47;;
5379;SDS011;2713;42.680;23.310;2023-04-25T08:31:04;8.33;;;5.70;;
5379;SDS011;2713;42.680;23.310;2023-04-25T08:33:42;7.47;;;6.10;;
5379;SDS011;2713;42.680;23.310;2023-04-25T08:36:20;6.57;;;6.00;;
5379;SDS011;2713;42.680;23.310;2023-04-25T08:38:47;11.17;;;7.37;;
5379;SDS011;2713;42.680;23.310;2023-04-25T08:41:17;10.50;;;8.13;;
5379;SDS011;2713;42.680;23.310;2023-04-25T08:43:47;7.37;;;6.63;;
5379;SDS011;2713;42.680;23.310;2023-04-25T08:46:15;11.80;;;7.70;;
5379;SDS011;2713;42.680;23.310;2023-04-25T08:48:58;7.50;;;5.87;;
5379;SDS011;2713;42.680;23.310;2023-04-25T08:51:29;6.40;;;5.80;;
5379;SDS011;2713;42.680;23.310;2023-04-25T08:54:02;8.63;;;7.47;;
5379;SDS011;2713;42.680;23.310;2023-04-25T08:56:36;7.23;;;6.30;;
5379;SDS011;2713;42.680;23.310;2023-04-25T08:59:04;6.83;;;6.17;;
5379;SDS011;2713;42.680;23.310;2023-04-25T09:01:34;7.30;;;6.60;;
5379;SDS011;2713;42.680;23.310;2023-04-25T09:04:03;6.53;;;5.93;;
5379;SDS011;2713;42.680;23.310;2023-04-25T09:06:32;9.30;;;6.80;;
5379;SDS011;2713;42.680;23.310;2023-04-25T09:09:01;7.57;;;6.80;;
5379;SDS011;2713;42.680;23.310;2023-04-25T09:11:33;6.07;;;5.50;;
5379;SDS011;2713;42.680;23.310;2023-04-25T09:14:10;6.13;;;5.50;;
5379;SDS011;2713;42.680;23.310;2023-04-25T09:16:58;5.73;;;5.20;;
5379;SDS011;2713;42.680;23.310;2023-04-25T09:19:49;6.27;;;5.67;;
5379;SDS011;2713;42.680;23.310;2023-04-25T09:22:22;6.70;;;6.10;;
5379;SDS011;2713;42.680;23.310;2023-04-25T09:24:49;7.20;;;6.50;;
5379;SDS011;2713;42.680;23.310;2023-04-25T09:27:18;7.17;;;6.23;;
5379;SDS011;2713;42.680;23.310;2023-04-25T09:29:50;8.23;;;5.80;;
5379;SDS011;2713;42.680;23.310;2023-04-25T09:32:24;7.43;;;6.00;;
5379;SDS011;2713;42.680;23.310;2023-04-25T09:34:55;7.83;;;5.53;;
5379;SDS011;2713;42.680;23.310;2023-04-25T09:37:25;8.50;;;5.80;;
5379;SDS011;2713;42.680;23.310;2023-04-25T09:40:13;8.17;;;6.50;;
5379;SDS011;2713;42.680;23.310;2023-04-25T09:43:04;5.93;;;5.33;;
5379;SDS011;2713;42.680;23.310;2023-04-25T09:45:40;7.30;;;5.40;;
5379;SDS011;2713;42.680;23.310;2023-04-25T09:48:11;6.93;;;6.23;;
5379;SDS011;2713;42.680;23.310;2023-04-25T09:50:43;1.87;;;1.77;;
5379;SDS011;2713;42.680;23.310;2023-04-25T09:53:10;2.97;;;2.33;;
5379;SDS011;2713;42.680;23.310;2023-04-25T09:55:52;2.17;;;1.97;;
5379;SDS011;2713;42.680;23.310;2023-04-25T09:58:19;6.27;;;5.67;;
5379;SDS011;2713;42.680;23.310;2023-04-25T10:00:47;6.00;;;5.40;;
5379;SDS011;2713;42.680;23.310;2023-04-25T10:03:26;3.87;;;3.57;;
5379;SDS011;2713;42.680;23.310;2023-04-25T10:06:32;5.27;;;4.80;;
5379;SDS011;2713;42.680;23.310;2023-04-25T10:09:01;7.10;;;6.40;;
5379;SDS011;2713;42.680;23.310;2023-04-25T10:11:29;6.80;;;6.10;;
5379;SDS011;2713;42.680;23.310;2023-04-25T10:13:58;5.47;;;4.97;;
5379;SDS011;2713;42.680;23.310;2023-04-25T10:16:26;4.77;;;4.30;;
5379;SDS011;2713;42.680;23.310;2023-04-25T10:18:53;2.63;;;2.03;;
5379;SDS011;2713;42.680;23.310;2023-04-25T10:21:21;5.90;;;2.23;;
5379;SDS011;2713;42.680;23.310;2023-04-25T10:23:50;2.47;;;2.10;;
5379;SDS011;2713;42.680;23.310;2023-04-25T10:26:18;2.40;;;2.20;;
5379;SDS011;2713;42.680;23.310;2023-04-25T10:28:54;2.43;;;2.10;;
5379;SDS011;2713;42.680;23.310;2023-04-25T10:31:21;1.93;;;1.60;;
5379;SDS011;2713;42.680;23.310;2023-04-25T10:33:48;4.03;;;1.30;;
5379;SDS011;2713;42.680;23.310;2023-04-25T10:36:17;2.10;;;1.77;;
5379;SDS011;2713;42.680;23.310;2023-04-25T10:38:46;2.67;;;1.70;;
5379;SDS011;2713;42.680;23.310;2023-04-25T10:41:17;1.40;;;1.30;;
5379;SDS011;2713;42.680;23.310;2023-04-25T10:43:45;1.70;;;1.60;;
5379;SDS011;2713;42.680;23.310;2023-04-25T10:46:13;2.10;;;2.00;;
5379;SDS011;2713;42.680;23.310;2023-04-25T10:48:48;1.80;;;1.60;;
5379;SDS011;2713;42.680;23.310;2023-04-25T10:51:17;2.80;;;2.50;;
5379;SDS011;2713;42.680;23.310;2023-04-25T10:53:45;3.10;;;1.70;;
5379;SDS011;2713;42.680;23.310;2023-04-25T10:56:17;1.57;;;1.47;;
5379;SDS011;2713;42.680;23.310;2023-04-25T10:58:46;1.50;;;1.40;;
5379;SDS011;2713;42.680;23.310;2023-04-25T11:01:24;1.43;;;1.33;;
5379;SDS011;2713;42.680;23.310;2023-04-25T11:03:56;2.00;;;1.77;;
5379;SDS011;2713;42.680;23.310;2023-04-25T11:06:27;2.03;;;1.47;;
5379;SDS011;2713;42.680;23.310;2023-04-25T11:09:00;6.60;;;5.87;;
5379;SDS011;2713;42.680;23.310;2023-04-25T11:11:41;4.07;;;2.90;;
5379;SDS011;2713;42.680;23.310;2023-04-25T11:14:08;1.30;;;1.20;;
5379;SDS011;2713;42.680;23.310;2023-04-25T11:16:35;1.63;;;1.53;;
5379;SDS011;2713;42.680;23.310;2023-04-25T11:19:02;3.37;;;1.20;;
5379;SDS011;2713;42.680;23.310;2023-04-25T11:21:30;1.20;;;1.10;;
5379;SDS011;2713;42.680;23.310;2023-04-25T11:23:58;1.40;;;1.30;;
5379;SDS011;2713;42.680;23.310;2023-04-25T11:26:26;1.53;;;1.43;;
5379;SDS011;2713;42.680;23.310;2023-04-25T11:28:58;1.83;;;1.30;;
5379;SDS011;2713;42.680;23.310;2023-04-25T11:31:25;2.10;;;1.87;;
5379;SDS011;2713;42.680;23.310;2023-04-25T11:33:52;4.60;;;3.50;;
5379;SDS011;2713;42.680;23.310;2023-04-25T11:36:19;2.43;;;2.23;;
5379;SDS011;2713;42.680;23.310;2023-04-25T11:38:48;2.90;;;1.63;;
5379;SDS011;2713;42.680;23.310;2023-04-25T11:41:16;2.10;;;1.53;;
5379;SDS011;2713;42.680;23.310;2023-04-25T11:43:43;1.40;;;1.30;;
5379;SDS011;2713;42.680;23.310;2023-04-25T11:46:11;1.97;;;1.40;;
5379;SDS011;2713;42.680;23.310;2023-04-25T11:48:38;1.57;;;1.47;;
5379;SDS011;2713;42.680;23.310;2023-04-25T11:51:05;2.37;;;1.30;;
5379;SDS011;2713;42.680;23.310;2023-04-25T11:53:32;1.60;;;1.50;;
5379;SDS011;2713;42.680;23.310;2023-04-25T11:55:59;2.23;;;1.20;;
5379;SDS011;2713;42.680;23.310;2023-04-25T11:58:27;2.43;;;1.70;;
5379;SDS011;2713;42.680;23.310;2023-04-25T12:00:54;1.77;;;1.60;;
5379;SDS011;2713;42.680;23.310;2023-04-25T12:03:25;1.90;;;1.80;;
5379;SDS011;2713;42.680;23.310;2023-04-25T12:06:01;1.83;;;1.40;;
5379;SDS011;2713;42.680;23.310;2023-04-25T12:08:29;2.80;;;1.37;;
5379;SDS011;2713;42.680;23.310;2023-04-25T12:10:56;1.40;;;1.30;;
5379;SDS011;2713;42.680;23.310;2023-04-25T12:13:23;1.47;;;1.37;;
5379;SDS011;2713;42.680;23.310;2023-04-25T12:15:52;1.77;;;1.50;;
5379;SDS011;2713;42.680;23.310;2023-04-25T12:18:20;1.50;;;1.40;;
5379;SDS011;2713;42.680;23.310;2023-04-25T12:20:51;2.40;;;1.53;;
5379;SDS011;2713;42.680;23.310;2023-04-25T12:23:24;1.90;;;1.80;;
5379;SDS011;2713;42.680;23.310;2023-04-25T12:25:52;2.13;;;1.80;;
5379;SDS011;2713;42.680;23.310;2023-04-25T12:28:20;2.10;;;2.00;;
5379;SDS011;2713;42.680;23.310;2023-04-25T12:30:52;1.30;;;1.20;;
5379;SDS011;2713;42.680;23.310;2023-04-25T12:33:22;1.27;;;1.10;;
5379;SDS011;2713;42.680;23.310;2023-04-25T12:35:49;2.00;;;1.80;;
5379;SDS011;2713;42.680;23.310;2023-04-25T12:38:27;1.50;;;1.10;;
5379;SDS011;2713;42.680;23.310;2023-04-25T12:40:56;2.20;;;1.83;;
5379;SDS011;2713;42.680;23.310;2023-04-25T12:43:24;6.27;;;2.40;;
5379;SDS011;2713;42.680;23.310;2023-04-25T12:45:51;3.80;;;2.43;;
5379;SDS011;2713;42.680;23.310;2023-04-25T12:48:19;4.10;;;2.00;;
5379;SDS011;2713;42.680;23.310;2023-04-25T12:50:47;4.80;;;2.00;;
5379;SDS011;2713;42.680;23.310;2023-04-25T12:53:14;2.33;;;2.13;;
5379;SDS011;2713;42.680;23.310;2023-04-25T12:55:43;4.33;;;2.40;;
5379;SDS011;2713;42.680;23.310;2023-04-25T12:58:11;3.60;;;2.10;;
5379;SDS011;2713;42.680;23.310;2023-04-25T13:00:38;2.47;;;1.70;;
5379;SDS011;2713;42.680;23.310;2023-04-25T13:03:04;2.10;;;1.90;;
5379;SDS011;2713;42.680;23.310;2023-04-25T13:05:31;1.70;;;1.60;;
5379;SDS011;2713;42.680;23.310;2023-04-25T13:07:58;1.70;;;1.60;;
5379;SDS011;2713;42.680;23.310;2023-04-25T13:10:25;3.00;;;1.53;;
5379;SDS011;2713;42.680;23.310;2023-04-25T13:12:53;3.17;;;1.80;;
5379;SDS011;2713;42.680;23.310;2023-04-25T13:15:20;2.27;;;2.07;;
5379;SDS011;2713;42.680;23.310;2023-04-25T13:17:47;3.37;;;2.20;;
5379;SDS011;2713;42.680;23.310;2023-04-25T13:20:16;4.13;;;2.40;;
5379;SDS011;2713;42.680;23.310;2023-04-25T13:22:47;3.90;;;2.53;;
5379;SDS011;2713;42.680;23.310;2023-04-25T13:25:15;4.00;;;2.77;;
5379;SDS011;2713;42.680;23.310;2023-04-25T13:27:41;5.40;;;3.40;;
5379;SDS011;2713;42.680;23.310;2023-04-25T13:30:10;3.40;;;3.00;;
5379;SDS011;2713;42.680;23.310;2023-04-25T13:32:38;2.90;;;2.60;;
5379;SDS011;2713;42.680;23.310;2023-04-25T13:35:05;2.30;;;2.17;;
5379;SDS011;2713;42.680;23.310;2023-04-25T13:37:35;3.27;;;2.97;;
5379;SDS011;2713;42.680;23.310;2023-04-25T13:40:02;2.67;;;2.47;;
5379;SDS011;2713;42.680;23.310;2023-04-25T13:42:30;2.63;;;2.27;;
5379;SDS011;2713;42.680;23.310;2023-04-25T13:44:57;2.37;;;2.27;;
5379;SDS011;2713;42.680;23.310;2023-04-25T13:47:26;2.70;;;2.50;;
5379;SDS011;2713;42.680;23.310;2023-04-25T13:49:53;4.60;;;2.60;;
5379;SDS011;2713;42.680;23.310;2023-04-25T13:52:20;1.93;;;1.83;;
5379;SDS011;2713;42.680;23.310;2023-04-25T13:54:49;4.53;;;2.10;;
5379;SDS011;2713;42.680;23.310;2023-04-25T13:57:17;2.53;;;2.20;;
5379;SDS011;2713;42.680;23.310;2023-04-25T13:59:45;4.03;;;2.90;;
5379;SDS011;2713;42.680;23.310;2023-04-25T14:02:12;2.53;;;2.27;;
5379;SDS011;2713;42.680;23.310;2023-04-25T14:04:40;3.97;;;2.17;;
5379;SDS011;2713;42.680;23.310;2023-04-25T14:07:07;2.10;;;2.00;;
5379;SDS011;2713;42.680;23.310;2023-04-25T14:09:36;2.60;;;2.40;;
5379;SDS011;2713;42.680;23.310;2023-04-25T14:12:03;2.37;;;2.17;;
5379;SDS011;2713;42.680;23.310;2023-04-25T14:14:29;1.70;;;1.60;;
5379;SDS011;2713;42.680;23.310;2023-04-25T14:16:56;1.97;;;1.77;;
5379;SDS011;2713;42.680;23.310;2023-04-25T14:19:23;1.90;;;1.70;;
5379;SDS011;2713;42.680;23.310;2023-04-25T14:21:52;1.90;;;1.73;;
5379;SDS011;2713;42.680;23.310;2023-04-25T14:24:18;1.90;;;1.80;;
5379;SDS011;2713;42.680;23.310;2023-04-25T14:26:45;2.13;;;1.73;;
5379;SDS011;2713;42.680;23.310;2023-04-25T14:29:13;2.90;;;1.63;;
5379;SDS011;2713;42.680;23.310;2023-04-25T14:31:39;2.03;;;1.53;;
5379;SDS011;2713;42.680;23.310;2023-04-25T14:34:07;3.23;;;2.20;;
5379;SDS011;2713;42.680;23.310;2023-04-25T14:36:34;2.53;;;2.33;;
5379;SDS011;2713;42.680;23.310;2023-04-25T14:39:03;1.90;;;1.70;;
5379;SDS011;2713;42.680;23.310;2023-04-25T14:41:31;1.43;;;1.33;;
5379;SDS011;2713;42.680;23.310;2023-04-25T14:43:58;1.50;;;1.40;;
5379;SDS011;2713;42.680;23.310;2023-04-25T14:46:25;2.50;;;2.30;;
5379;SDS011;2713;42.680;23.310;2023-04-25T14:48:52;1.80;;;1.70;;
5379;SDS011;2713;42.680;23.310;2023-04-25T14:51:20;2.37;;;2.17;;
5379;SDS011;2713;42.680;23.310;2023-04-25T14:53:47;2.07;;;1.87;;
5379;SDS011;2713;42.680;23.310;2023-04-25T14:56:16;2.97;;;2.70;;
5379;SDS011;2713;42.680;23.310;2023-04-25T14:58:43;2.67;;;2.30;;
5379;SDS011;2713;42.680;23.310;2023-04-25T15:01:10;2.10;;;2.00;;
5379;SDS011;2713;42.680;23.310;2023-04-25T15:03:38;2.13;;;2.03;;
5379;SDS011;2713;42.680;23.310;2023-04-25T15:06:05;3.00;;;2.57;;
5379;SDS011;2713;42.680;23.310;2023-04-25T15:08:32;2.20;;;2.00;;
5379;SDS011;2713;42.680;23.310;2023-04-25T15:10:59;2.27;;;1.77;;
5379;SDS011;2713;42.680;23.310;2023-04-25T15:13:28;2.30;;;2.10;;
5379;SDS011;2713;42.680;23.310;2023-04-25T15:15:55;2.50;;;2.30;;
5379;SDS011;2713;42.680;23.310;2023-04-25T15:18:22;2.80;;;2.60;;
5379;SDS011;2713;42.680;23.310;2023-04-25T15:20:50;2.47;;;2.27;;